Time;durP1;ratioP1;P1;durP2;ratioP2;P2;SDS_P1;SDS_P2;PMS_P1;PMS_P2;Temp;Humidity;BMP_temperature;BMP_pressure;BME280_temperature;BME280_humidity;BME280_pressure;Samples;Min_cycle;Max_cycle;Signal;HPM_P1;HPM_P2
2022/10/20 00:01:34;;;;;;;13.07;9.93;;;10.20;99.90;;;9.69;100.00;97564.19;4972746;28;20076;-42
2022/10/20 00:04:00;;;;;;;11.85;8.93;;;10.20;99.90;;;9.68;100.00;97570.38;4978757;28;20037;-42
2022/10/20 00:06:30;;;;;;;11.75;8.60;;;10.10;99.90;;;9.66;100.00;97566.91;4973306;28;20466;-41
2022/10/20 00:08:58;;;;;;;9.90;8.57;;;10.10;99.90;;;9.62;100.00;97565.28;4969225;28;20092;-42
2022/10/20 00:11:27;;;;;;;11.25;8.45;;;10.10;99.90;;;9.61;100.00;97568.81;4976841;28;20033;-41
2022/10/20 00:13:54;;;;;;;9.95;8.20;;;10.10;99.90;;;9.58;100.00;97565.41;4962659;28;20072;-41
2022/10/20 00:16:22;;;;;;;9.15;7.82;;;10.00;99.90;;;9.55;100.00;97559.34;4983176;28;24067;-41
2022/10/20 00:18:48;;;;;;;11.73;8.88;;;10.00;99.90;;;9.52;100.00;97553.31;4987766;28;20490;-41
2022/10/20 00:21:20;;;;;;;12.13;8.75;;;10.00;99.90;;;9.51;100.00;97551.56;4985209;28;20041;-42
2022/10/20 00:23:46;;;;;;;;;;;10.00;99.90;;;9.46;100.00;97549.09;4981788;28;20034;-41
2022/10/20 00:26:19;;;;;;;11.55;8.55;;;9.90;99.90;;;9.45;100.00;97552.63;4977647;28;19921;-42
2022/10/20 00:28:45;;;;;;;14.07;9.98;;;9.90;99.90;;;9.43;100.00;97548.31;4981812;28;20661;-41
2022/10/20 00:31:12;;;;;;;13.50;9.90;;;10.00;99.90;;;9.45;100.00;97554.41;4982789;28;20038;-42
2022/10/20 00:33:39;;;;;;;12.98;9.98;;;10.00;99.90;;;9.48;100.00;97544.63;4982285;28;20026;-41
2022/10/20 00:36:08;;;;;;;12.98;9.70;;;10.00;99.90;;;9.48;100.00;97541.16;4979935;28;20063;-42
2022/10/20 00:38:34;;;;;;;13.45;9.50;;;10.00;99.90;;;9.48;100.00;97546.44;4960972;28;20112;-42
2022/10/20 00:41:02;;;;;;;15.93;9.93;;;10.00;99.90;;;9.48;100.00;97543.78;4962785;28;20030;-42
2022/10/20 00:43:52;;;;;;;12.43;9.00;;;10.00;99.90;;;9.33;100.00;97527.53;4983640;28;20033;-42
2022/10/20 00:46:31;;;;;;;11.05;8.50;;;10.00;99.90;;;9.46;100.00;97556.13;4987899;28;20052;-41
2022/10/20 00:49:02;;;;;;;11.65;8.65;;;10.00;99.90;;;9.44;100.00;97555.28;4958928;28;20034;-42
2022/10/20 00:51:30;;;;;;;11.05;8.05;;;10.00;99.90;;;9.42;100.00;97558.00;4979266;28;20034;-43
2022/10/20 00:54:13;;;;;;;12.07;8.25;;;10.00;99.90;;;9.40;100.00;97553.66;4956530;28;20026;-42
2022/10/20 00:56:42;;;;;;;11.27;7.93;;;9.90;99.90;;;9.35;100.00;97544.16;4976725;28;20036;-42
2022/10/20 00:59:10;;;;;;;13.98;8.43;;;9.90;99.90;;;9.32;100.00;97527.59;4979752;28;20038;-42
2022/10/20 01:01:38;;;;;;;17.52;8.38;;;9.80;99.90;;;9.28;100.00;97518.94;4966784;28;20500;-42
2022/10/20 01:04:04;;;;;;;11.85;7.93;;;9.80;99.90;;;9.23;100.00;97506.81;4963278;28;20034;-42
2022/10/20 01:06:30;;;;;;;12.13;8.57;;;9.80;99.90;;;9.15;100.00;97499.13;4981129;28;20069;-42
2022/10/20 01:08:56;;;;;;;18.15;9.60;;;9.70;99.90;;;9.22;100.00;97499.81;4984765;28;20420;-42
2022/10/20 01:11:39;;;;;;;13.88;9.93;;;9.80;99.90;;;9.23;100.00;97496.28;4949276;28;20037;-43
2022/10/20 01:14:14;;;;;;;12.65;9.27;;;9.80;99.90;;;9.24;100.00;97503.25;4970783;28;20129;-42
2022/10/20 01:16:52;;;;;;;15.95;9.93;;;9.80;99.90;;;9.25;100.00;97497.94;4958210;28;20033;-43
2022/10/20 01:19:32;;;;;;;15.00;9.73;;;9.80;99.90;;;9.27;100.00;97492.66;4979780;28;20129;-42
2022/10/20 01:22:38;;;;;;;14.07;9.30;;;9.80;99.90;;;9.26;100.00;97485.66;4978689;28;20034;-43
2022/10/20 01:25:19;;;;;;;12.30;8.35;;;9.80;99.90;;;9.23;100.00;97478.72;4974145;28;20285;-42
2022/10/20 01:28:04;;;;;;;17.55;9.68;;;9.80;99.90;;;9.24;100.00;97484.84;4979492;28;20026;-42
2022/10/20 01:30:35;;;;;;;17.08;10.20;;;9.80;99.90;;;9.21;100.00;97475.28;4959847;28;20076;-42
2022/10/20 01:33:36;;;;;;;16.42;10.68;;;9.80;99.90;;;9.30;100.00;97488.16;4955803;28;20049;-42
2022/10/20 01:36:30;;;;;;;14.20;10.35;;;9.90;99.90;;;9.32;100.00;97481.06;4970822;28;20072;-41
2022/10/20 01:39:22;;;;;;;21.98;11.35;;;9.90;99.90;;;9.32;100.00;97478.44;4956048;28;20033;-41
2022/10/20 01:42:18;;;;;;;16.77;10.35;;;9.90;99.90;;;9.29;100.00;97473.25;4970728;28;20037;-42
2022/10/20 01:44:47;;;;;;;18.40;10.52;;;9.90;99.90;;;9.28;100.00;97473.34;4959983;28;20596;-41
2022/10/20 01:47:15;;;;;;;13.88;9.25;;;9.80;99.90;;;9.27;100.00;97466.34;4958217;28;20065;-41
2022/10/20 01:49:43;;;;;;;18.77;10.63;;;9.80;99.90;;;9.22;100.00;97455.94;4956570;28;20030;-41
2022/10/20 01:52:13;;;;;;;15.15;9.93;;;9.80;99.90;;;9.23;100.00;97462.09;4970429;28;20044;-41
2022/10/20 01:54:39;;;;;;;14.85;8.70;;;9.80;99.90;;;9.21;100.00;97458.63;4972530;28;20099;-41
2022/10/20 01:57:35;;;;;;;11.77;8.43;;;9.80;99.90;;;9.22;100.00;97465.59;4971517;28;20117;-43
2022/10/20 02:00:14;;;;;;;15.07;9.63;;;9.80;99.90;;;9.15;100.00;97459.66;4976488;28;20065;-42
2022/10/20 02:03:09;;;;;;;17.63;9.70;;;9.80;99.90;;;9.14;100.00;97450.06;4968587;28;20228;-42
2022/10/20 02:06:06;;;;;;;13.63;8.95;;;9.70;99.90;;;9.13;100.00;97449.22;4978040;28;20099;-42
2022/10/20 02:08:47;;;;;;;12.80;8.63;;;9.70;99.90;;;9.10;100.00;97451.06;4979249;28;20143;-42
2022/10/20 02:11:32;;;;;;;14.35;8.35;;;9.70;99.90;;;9.12;100.00;97446.63;4956120;28;20033;-42
2022/10/20 02:13:59;;;;;;;13.05;9.00;;;9.70;99.90;;;9.11;100.00;97442.25;4955892;28;20124;-41
2022/10/20 02:16:32;;;;;;;11.23;8.68;;;9.60;99.90;;;9.08;100.00;97431.81;4953331;28;20815;-41
2022/10/20 02:18:59;;;;;;;13.98;8.25;;;9.60;99.90;;;9.03;100.00;97446.91;4977919;28;20037;-42
2022/10/20 02:21:25;;;;;;;11.40;8.25;;;9.60;99.90;;;9.01;100.00;97446.06;4964355;28;20153;-41
2022/10/20 02:23:52;;;;;;;13.57;8.30;;;9.50;99.90;;;8.98;100.00;97444.41;4985310;28;20423;-42
2022/10/20 02:26:22;;;;;;;14.55;8.30;;;9.50;99.90;;;8.95;100.00;97433.97;4965697;28;20038;-42
2022/10/20 02:28:56;;;;;;;14.80;8.30;;;9.50;99.90;;;8.92;100.00;97434.91;4962279;28;20157;-41
2022/10/20 02:31:23;;;;;;;11.88;8.23;;;9.40;99.90;;;8.90;100.00;97423.59;4966380;28;20041;-41
2022/10/20 02:33:49;;;;;;;13.02;9.15;;;9.40;99.90;;;8.84;100.00;97413.25;4973400;28;20447;-42
2022/10/20 02:36:18;;;;;;;12.27;8.77;;;9.40;99.90;;;8.83;100.00;97419.41;4966249;28;20026;-42
2022/10/20 02:38:44;;;;;;;11.60;8.35;;;9.40;99.90;;;8.82;100.00;97419.47;4972888;28;20061;-42
2022/10/20 02:41:10;;;;;;;14.10;9.70;;;9.40;99.90;;;8.85;100.00;97420.22;4962779;28;20029;-41
2022/10/20 02:43:36;;;;;;;12.82;8.98;;;9.40;99.90;;;8.86;100.00;97403.53;4984643;28;20088;-41
2022/10/20 02:46:02;;;;;;;14.20;10.20;;;9.40;99.90;;;8.93;100.00;97415.59;4983742;28;20060;-41
2022/10/20 02:48:27;;;;;;;13.30;10.57;;;9.40;99.90;;;8.95;100.00;97408.53;4991586;28;20458;-41
2022/10/20 02:50:53;;;;;;;15.07;9.93;;;9.50;99.90;;;9.00;100.00;97408.38;4973692;28;20129;-41
2022/10/20 02:53:19;;;;;;;14.25;9.75;;;9.50;99.90;;;9.02;100.00;97414.44;4981098;28;20033;-41
2022/10/20 02:55:44;;;;;;;14.65;10.35;;;9.50;99.90;;;9.01;100.00;97415.38;4980988;28;20313;-41
2022/10/20 02:58:10;;;;;;;16.17;10.60;;;9.60;99.90;;;9.09;100.00;97423.03;4984958;28;20387;-42
2022/10/20 03:00:36;;;;;;;16.35;10.85;;;9.60;99.90;;;9.09;100.00;97417.75;4983250;28;20038;-41
2022/10/20 03:03:02;;;;;;;16.92;10.13;;;9.60;99.90;;;9.09;100.00;97423.88;4979972;28;20045;-41
2022/10/20 03:05:28;;;;;;;16.38;10.57;;;9.60;99.90;;;9.10;100.00;97416.88;4980940;28;20034;-42
2022/10/20 03:07:54;;;;;;;16.25;10.10;;;9.60;99.90;;;9.10;100.00;97416.88;4980464;28;20621;-42
2022/10/20 03:10:20;;;;;;;15.57;10.35;;;9.60;99.90;;;9.10;100.00;97424.75;4985034;28;20038;-42
2022/10/20 03:12:45;;;;;;;13.10;9.95;;;9.60;99.90;;;9.08;100.00;97426.56;4979855;28;20034;-43
2022/10/20 03:15:11;;;;;;;16.27;10.65;;;9.60;99.90;;;9.05;100.00;97419.63;4982605;28;20160;-43
2022/10/20 03:17:37;;;;;;;16.00;9.68;;;9.60;99.90;;;9.01;100.00;97409.22;4981829;28;20188;-43
2022/10/20 03:20:04;;;;;;;11.98;9.10;;;9.60;99.90;;;9.05;100.00;97414.38;4983767;28;20065;-42
2022/10/20 03:22:30;;;;;;;16.80;10.95;;;9.60;99.90;;;9.07;100.00;97420.44;4964378;28;20042;-42
2022/10/20 03:24:55;;;;;;;16.30;11.02;;;9.60;99.90;;;9.08;100.00;97416.03;4983307;28;20061;-42
2022/10/20 03:27:21;;;;;;;18.73;11.25;;;9.60;99.90;;;9.09;100.00;97413.34;4985655;28;20509;-42
2022/10/20 03:29:47;;;;;;;16.65;10.80;;;9.60;99.90;;;9.11;100.00;97411.53;4985551;28;20117;-42
2022/10/20 03:32:13;;;;;;;17.50;11.13;;;9.60;99.90;;;9.14;100.00;97416.72;4980220;28;20037;-42
2022/10/20 03:34:38;;;;;;;15.55;11.23;;;9.70;99.90;;;9.17;100.00;97407.88;4979132;28;20238;-42
2022/10/20 03:37:05;;;;;;;17.85;11.02;;;9.70;99.90;;;9.15;100.00;97409.66;4987251;28;20056;-42
2022/10/20 03:39:30;;;;;;;18.70;11.75;;;9.70;99.90;;;9.09;100.00;97399.34;4991258;28;20163;-42
2022/10/20 03:41:56;;;;;;;18.70;11.95;;;9.70;99.90;;;9.22;100.00;97412.97;4982302;28;20042;-42
2022/10/20 03:44:23;;;;;;;15.32;11.13;;;9.70;99.90;;;9.23;100.00;97410.31;4993019;23;20126;-56
2022/10/20 03:46:49;;;;;;;16.15;10.90;;;9.80;99.90;;;9.26;100.00;97404.06;4969969;28;20483;-57
2022/10/20 03:49:14;;;;;;;17.88;10.88;;;9.80;99.90;;;9.23;100.00;97394.50;4983427;28;20119;-56
2022/10/20 03:51:40;;;;;;;21.23;11.25;;;9.80;99.90;;;9.30;100.00;97397.81;4957139;28;20042;-57
2022/10/20 03:54:06;;;;;;;16.15;10.48;;;9.80;99.90;;;9.31;100.00;97392.50;4960364;28;20125;-56
2022/10/20 03:56:32;;;;;;;19.35;11.20;;;9.80;99.90;;;9.33;100.00;97392.44;4952058;28;20078;-56
2022/10/20 03:58:57;;;;;;;16.95;11.65;;;9.90;99.90;;;9.33;100.00;97390.69;4955000;28;20039;-57
2022/10/20 04:01:29;;;;;;;17.90;11.20;;;9.90;99.90;;;9.38;100.00;97390.53;4970399;28;20244;-57
2022/10/20 04:03:55;;;;;;;18.23;11.95;;;9.90;99.90;;;9.40;100.00;97391.34;4949468;28;20096;-57
2022/10/20 04:06:20;;;;;;;17.30;10.68;;;9.90;99.90;;;9.41;100.00;97376.41;4966556;28;20952;-57
2022/10/20 04:08:46;;;;;;;21.15;12.32;;;9.90;99.90;;;9.44;100.00;97381.56;4967562;28;20469;-57
2022/10/20 04:11:12;;;;;;;16.63;11.88;;;10.00;99.90;;;9.45;100.00;97378.88;4956859;28;20502;-56
2022/10/20 04:13:37;;;;;;;15.10;10.35;;;10.00;99.90;;;9.50;100.00;97384.00;4954505;28;20370;-56
2022/10/20 04:16:03;;;;;;;16.48;11.02;;;10.00;99.90;;;9.53;100.00;97389.19;4962063;28;20034;-56
2022/10/20 04:18:30;;;;;;;17.33;11.38;;;10.10;99.90;;;9.56;100.00;97381.16;4965807;28;20116;-57
2022/10/20 04:20:56;;;;;;;16.80;11.20;;;10.00;99.90;;;9.59;100.00;97374.94;4963200;28;20042;-57
2022/10/20 04:23:21;;;;;;;15.25;10.50;;;10.10;99.90;;;9.62;100.00;97375.72;4957833;28;20085;-57
2022/10/20 04:25:47;;;;;;;17.40;11.82;;;10.10;99.90;;;9.64;100.00;97373.88;4953852;28;20535;-56
2022/10/20 04:28:19;;;;;;;18.25;11.50;;;10.10;99.90;;;9.66;100.00;97366.78;4966524;28;20038;-56
2022/10/20 04:30:45;;;;;;;18.30;10.95;;;10.20;99.90;;;9.70;100.00;97378.94;4963471;28;20286;-57
2022/10/20 04:33:12;;;;;;;16.48;10.98;;;10.20;99.90;;;9.71;100.00;97374.53;4961198;28;20566;-56
2022/10/20 04:35:38;;;;;;;17.25;11.10;;;10.20;99.90;;;9.74;100.00;97370.03;4961034;28;20037;-57
2022/10/20 04:38:04;;;;;;;18.48;11.77;;;10.20;99.90;;;9.78;100.00;97377.81;4967000;28;20109;-56
2022/10/20 04:40:29;;;;;;;16.42;11.35;;;10.20;99.90;;;9.77;100.00;97374.31;4969830;28;20049;-57
2022/10/20 04:42:57;;;;;;;18.17;12.77;;;10.30;99.90;;;9.78;100.00;97372.53;4967720;28;20038;-55
2022/10/20 04:45:23;;;;;;;20.58;13.18;;;10.30;99.90;;;9.81;100.00;97372.44;4964788;28;20034;-56
2022/10/20 04:47:49;;;;;;;16.23;11.07;;;10.30;99.90;;;9.83;100.00;97365.34;4954442;28;20038;-57
2022/10/20 04:50:14;;;;;;;17.48;12.32;;;10.30;99.90;;;9.85;100.00;97348.59;4964311;28;20575;-57
2022/10/20 04:52:40;;;;;;;19.50;12.68;;;10.30;99.90;;;9.88;100.00;97344.97;4959393;28;20041;-56
2022/10/20 04:55:06;;;;;;;23.90;13.60;;;10.40;99.90;;;9.91;100.00;97350.16;4964751;28;20053;-57
2022/10/20 04:57:32;;;;;;;19.60;12.85;;;10.40;99.90;;;9.93;100.00;97357.06;4950477;28;20045;-57
2022/10/20 04:59:58;;;;;;;22.23;13.82;;;10.40;99.90;;;9.93;100.00;97353.59;4971196;28;20035;-57
2022/10/20 05:02:24;;;;;;;16.85;12.23;;;10.40;99.90;;;9.96;100.00;97352.59;4965865;28;20089;-57
2022/10/20 05:04:49;;;;;;;19.65;12.75;;;10.40;99.90;;;9.97;100.00;97352.56;4965889;28;20389;-57
2022/10/20 05:07:15;;;;;;;23.42;14.75;;;10.50;99.90;;;9.99;100.00;97350.72;4964135;28;20898;-57
2022/10/20 05:09:41;;;;;;;23.52;13.77;;;10.50;99.90;;;10.02;100.00;97349.78;4961118;28;20427;-57
2022/10/20 05:12:07;;;;;;;19.80;12.55;;;10.50;99.90;;;10.03;100.00;97349.72;4946365;28;20100;-57
2022/10/20 05:14:32;;;;;;;20.42;13.15;;;10.50;99.90;;;10.04;100.00;97334.75;4965640;28;20820;-57
2022/10/20 05:16:58;;;;;;;21.10;12.98;;;10.50;99.90;;;10.05;100.00;97337.34;4966360;28;20575;-56
2022/10/20 05:19:24;;;;;;;20.77;12.63;;;10.50;99.90;;;10.07;100.00;97330.25;4956889;28;20469;-57
2022/10/20 05:21:50;;;;;;;27.23;15.25;;;10.60;99.90;;;10.06;100.00;97323.25;4962980;28;20038;-57
2022/10/20 05:24:17;;;;;;;22.20;14.32;;;10.60;99.90;;;10.04;100.00;97322.44;4968323;28;20025;-57
2022/10/20 05:26:43;;;;;;;22.38;13.40;;;10.50;99.90;;;10.05;100.00;97310.13;4958238;28;20042;-57
2022/10/20 05:29:10;;;;;;;21.60;12.43;;;10.50;99.90;;;10.04;100.00;97316.31;4966440;28;20031;-57
2022/10/20 05:31:42;;;;;;;21.70;13.65;;;10.50;99.90;;;10.00;100.00;97310.31;4963905;28;20030;-57
2022/10/20 05:34:11;;;;;;;21.83;13.85;;;10.50;99.90;;;9.93;100.00;97312.28;4968422;28;20580;-57
2022/10/20 05:36:37;;;;;;;23.55;14.02;;;10.50;99.90;;;9.95;100.00;97306.97;4963793;28;20050;-57
2022/10/20 05:39:03;;;;;;;20.92;13.65;;;10.40;99.90;;;9.73;100.00;97278.75;4960622;28;20080;-57
2022/10/20 05:41:31;;;;;;;20.80;12.95;;;10.50;99.90;;;9.90;100.00;97319.44;4969684;28;20054;-57
2022/10/20 05:44:00;;;;;;;21.67;13.80;;;10.40;99.90;;;9.88;100.00;97318.63;4957138;28;20044;-58
2022/10/20 05:46:33;;;;;;;24.90;13.10;;;10.40;99.90;;;9.87;100.00;97317.78;4966336;28;20117;-57
2022/10/20 05:49:02;;;;;;;24.45;13.95;;;10.40;99.90;;;9.84;100.00;97304.72;4965794;28;20042;-57
2022/10/20 05:51:32;;;;;;;20.05;12.20;;;10.40;99.90;;;9.92;100.00;97309.69;4963862;28;20046;-57
2022/10/20 05:53:58;;;;;;;21.58;12.98;;;10.40;99.90;;;9.89;100.00;97292.25;4966197;28;20073;-58
2022/10/20 05:56:26;;;;;;;21.77;12.50;;;10.40;99.90;;;9.91;100.00;97298.31;4950088;28;20491;-57
2022/10/20 05:58:52;;;;;;;24.58;14.68;;;10.40;99.90;;;9.91;100.00;97292.19;4963182;28;20042;-57
2022/10/20 06:01:23;;;;;;;27.90;15.65;;;10.40;99.90;;;9.96;100.00;97294.66;4969198;28;20164;-56
2022/10/20 06:03:58;;;;;;;26.15;13.65;;;10.40;99.90;;;9.97;100.00;97291.09;4959335;28;20030;-57
2022/10/20 06:06:29;;;;;;;25.83;13.73;;;10.50;99.90;;;10.00;100.00;97298.91;4961480;28;20494;-57
2022/10/20 06:08:58;;;;;;;25.67;14.13;;;10.50;99.90;;;10.03;100.00;97298.78;4941405;28;20038;-57
2022/10/20 06:11:25;;;;;;;28.42;15.73;;;10.50;99.90;;;10.04;100.00;97298.72;4963114;28;20062;-57
2022/10/20 06:13:51;;;;;;;38.03;16.85;;;10.50;99.90;;;10.08;100.00;97305.59;4962172;28;20035;-57
2022/10/20 06:16:21;;;;;;;29.80;15.80;;;10.60;99.90;;;10.12;100.00;97298.44;4968461;28;20096;-58
2022/10/20 06:18:47;;;;;;;28.08;14.20;;;10.60;99.90;;;10.18;100.00;97305.28;4948096;28;20041;-57
2022/10/20 06:21:29;;;;;;;28.08;15.60;;;10.70;99.90;;;10.22;100.00;97306.88;4958033;28;20117;-58
2022/10/20 06:23:58;;;;;;;32.13;15.38;;;10.70;99.90;;;10.26;100.00;97309.31;4961604;28;20030;-57
2022/10/20 06:26:31;;;;;;;22.17;13.40;;;10.70;99.90;;;10.31;100.00;97311.84;4954831;28;20046;-58
2022/10/20 06:28:58;;;;;;;21.20;12.93;;;10.80;99.90;;;10.36;100.00;97314.31;4969416;28;20038;-57
2022/10/20 06:31:31;;;;;;;26.98;12.93;;;10.80;99.90;;;10.37;100.00;97305.47;4963595;28;20432;-58
2022/10/20 06:33:57;;;;;;;;;;;10.90;99.90;;;10.41;100.00;97307.06;4971003;28;20045;-57
2022/10/20 06:36:23;;;;;;;19.23;13.43;;;10.90;99.90;;;10.44;100.00;97305.16;4952627;28;19913;-58
2022/10/20 06:38:58;;;;;;;23.02;12.15;;;10.90;99.90;;;10.48;100.00;97317.34;4966559;28;20042;-58
2022/10/20 06:41:25;;;;;;;17.05;11.82;;;10.90;99.90;;;10.49;100.00;97311.13;4962063;28;20037;-58
2022/10/20 06:43:59;;;;;;;18.52;11.40;;;10.90;99.90;;;10.54;100.00;97331.22;4967410;28;20086;-57
2022/10/20 06:46:34;;;;;;;17.55;11.23;;;11.00;99.90;;;10.59;100.00;97327.47;4971304;28;20121;-57
2022/10/20 06:49:02;;;;;;;21.45;11.15;;;11.00;99.90;;;10.64;100.00;97329.94;4972751;28;20121;-57
2022/10/20 06:51:29;;;;;;;18.58;12.43;;;11.10;99.90;;;10.68;100.00;97331.56;4965501;28;20042;-58
2022/10/20 06:53:54;;;;;;;15.40;10.30;;;11.10;99.90;;;10.73;100.00;97328.72;4952487;28;20436;-57
2022/10/20 06:56:24;;;;;;;14.50;10.82;;;11.10;99.90;;;10.76;100.00;97326.81;4969331;28;20125;-57
2022/10/20 06:58:52;;;;;;;17.85;11.00;;;11.20;99.90;;;10.83;100.00;97325.66;4949547;28;20042;-58
2022/10/20 07:01:24;;;;;;;21.85;12.13;;;11.30;99.90;;;10.89;100.00;97335.09;4969225;28;20061;-57
2022/10/20 07:03:53;;;;;;;18.77;11.90;;;11.30;99.90;;;10.94;100.00;97330.53;4969604;28;20043;-57
2022/10/20 07:06:29;;;;;;;24.05;12.23;;;11.40;99.90;;;10.98;100.00;97329.50;4967561;28;20038;-58
2022/10/20 07:08:55;;;;;;;17.55;11.82;;;11.40;99.90;;;11.03;100.00;97337.22;4970619;28;20034;-57
2022/10/20 07:11:25;;;;;;;19.08;11.23;;;11.50;99.90;;;11.06;100.00;97337.94;4971481;28;20057;-57
2022/10/20 07:13:51;;;;;;;18.23;11.45;;;11.50;99.90;;;11.13;100.00;97324.53;4969675;28;20091;-57
2022/10/20 07:16:21;;;;;;;20.73;12.45;;;11.60;99.90;;;11.18;100.00;97327.81;4971605;28;20058;-57
2022/10/20 07:18:47;;;;;;;18.45;11.00;;;11.60;99.90;;;11.23;100.00;97324.09;4957311;28;20128;-57
2022/10/20 07:21:19;;;;;;;19.25;11.23;;;11.70;99.90;;;11.32;100.00;97329.91;4967206;28;20030;-57
2022/10/20 07:23:45;;;;;;;20.20;11.65;;;11.70;99.90;;;11.33;100.00;97315.78;4968361;28;20045;-58
2022/10/20 07:26:25;;;;;;;16.75;11.25;;;11.80;99.90;;;11.43;100.00;97320.63;4969292;28;20034;-58
2022/10/20 07:28:54;;;;;;;19.58;12.85;;;11.80;99.90;;;11.50;100.00;97317.72;4966818;28;21273;-57
2022/10/20 07:31:36;;;;;;;15.30;11.50;;;12.00;99.90;;;11.54;100.00;97317.53;4972756;28;20042;-58
2022/10/20 07:34:05;;;;;;;14.63;10.30;;;12.00;99.90;;;11.62;100.00;97320.69;4970895;28;20034;-57
2022/10/20 07:36:33;;;;;;;17.90;10.68;;;12.10;99.90;;;11.69;100.00;97321.28;4968377;28;20030;-58
2022/10/20 07:39:02;;;;;;;20.70;11.32;;;12.20;99.90;;;11.74;100.00;97313.19;4974171;28;20077;-57
2022/10/20 07:41:29;;;;;;;20.23;12.15;;;12.20;99.90;;;11.81;100.00;97322.56;4971470;28;20045;-57
2022/10/20 07:43:55;;;;;;;15.52;10.27;;;12.30;99.90;;;11.86;100.00;97333.78;4971588;28;20038;-57
2022/10/20 07:46:22;;;;;;;17.95;10.18;;;12.40;99.90;;;11.93;100.00;97329.13;4968887;28;20026;-58
2022/10/20 07:48:49;;;;;;;16.40;10.15;;;12.40;99.90;;;11.97;100.00;97323.66;4970006;28;20066;-57
2022/10/20 07:51:20;;;;;;;13.13;9.13;;;12.50;99.90;;;12.00;100.00;97331.41;4973771;28;20054;-58
2022/10/20 07:53:48;;;;;;;14.02;9.32;;;12.50;99.90;;;12.04;100.00;97326.84;4970851;28;20046;-58
2022/10/20 07:56:14;;;;;;;12.82;8.93;;;12.50;99.90;;;12.06;100.00;97314.47;4971236;28;20114;-58
2022/10/20 07:58:41;;;;;;;10.63;8.05;;;12.60;99.90;;;12.18;100.00;97320.97;4951925;28;20113;-58
2022/10/20 08:01:07;;;;;;;12.40;8.60;;;12.60;99.90;;;12.19;100.00;97318.25;4968070;28;20080;-57
2022/10/20 08:03:33;;;;;;;11.43;8.52;;;12.70;99.90;;;12.23;100.00;97318.97;4954257;28;20122;-58
2022/10/20 08:05:59;;;;;;;11.27;8.52;;;12.70;99.90;;;12.22;100.00;97317.25;4967934;28;20038;-57
2022/10/20 08:08:25;;;;;;;10.43;8.05;;;12.70;99.90;;;12.20;100.00;97316.47;4972006;28;20416;-57
2022/10/20 08:10:50;;;;;;;13.57;7.93;;;12.70;99.90;;;12.29;100.00;97326.66;4967519;28;20034;-58
2022/10/20 08:13:16;;;;;;;10.60;7.38;;;12.80;99.90;;;12.38;100.00;97323.59;4968177;28;20034;-57
2022/10/20 08:15:42;;;;;;;11.35;7.95;;;12.90;99.90;;;12.49;100.00;97327.50;4969409;28;20046;-58
2022/10/20 08:18:08;;;;;;;11.73;7.20;;;13.00;99.90;;;12.58;100.00;97327.97;4970524;28;20704;-58
2022/10/20 08:20:33;;;;;;;9.70;6.65;;;13.10;99.90;;;12.70;100.00;97321.22;4968377;28;20117;-58
2022/10/20 08:22:59;;;;;;;11.18;8.13;;;13.20;99.90;;;12.76;100.00;97310.38;4969795;28;20121;-58
2022/10/20 08:25:25;;;;;;;11.43;7.78;;;13.30;99.90;;;12.87;100.00;97309.03;4970184;28;20041;-57
2022/10/20 08:27:51;;;;;;;10.88;6.82;;;13.40;99.90;;;12.90;100.00;97298.25;4968711;28;20214;-58
2022/10/20 08:30:17;;;;;;;9.55;7.30;;;13.50;99.90;;;13.02;100.00;97302.97;4971148;28;20478;-57
2022/10/20 08:32:43;;;;;;;10.27;7.35;;;13.50;99.90;;;13.10;100.00;97294.66;4970509;28;20076;-57
2022/10/20 08:35:09;;;;;;;12.02;6.38;;;13.50;99.90;;;13.17;100.00;97299.59;4969562;28;20073;-57
2022/10/20 08:37:35;;;;;;;10.23;7.10;;;13.60;99.90;;;13.24;100.00;97294.81;4967820;28;20065;-57
2022/10/20 08:40:05;;;;;;;6.80;5.50;;;13.70;99.90;;;13.33;100.00;97289.13;4963520;28;20031;-57
2022/10/20 08:42:39;;;;;;;9.45;6.88;;;13.80;99.90;;;13.43;100.00;97307.22;4965293;28;20135;-57
2022/10/20 08:45:05;;;;;;;9.93;6.32;;;13.80;99.90;;;13.49;100.00;97322.78;4951779;28;20041;-58
2022/10/20 08:47:35;;;;;;;7.50;6.13;;;14.00;99.90;;;13.62;100.00;97325.66;4967262;28;20068;-58
2022/10/20 08:50:04;;;;;;;6.43;5.18;;;14.00;99.90;;;13.71;100.00;97314.59;4970777;28;20058;-58
2022/10/20 08:52:30;;;;;;;9.35;6.57;;;14.10;99.90;;;13.86;100.00;97315.63;4949917;28;20050;-57
2022/10/20 08:54:56;;;;;;;11.02;7.05;;;14.30;99.90;;;13.88;100.00;97317.25;4953727;28;20036;-58
2022/10/20 08:57:30;;;;;;;7.57;6.78;;;14.30;99.90;;;13.93;100.00;97317.88;4954122;28;20125;-58
2022/10/20 09:00:19;;;;;;;7.60;5.90;;;14.40;99.90;;;14.01;100.00;97328.06;4955155;28;20043;-57
2022/10/20 09:02:47;;;;;;;8.15;6.72;;;14.50;99.90;;;14.02;100.00;97337.75;4957524;28;20045;-58
2022/10/20 09:05:16;;;;;;;10.88;5.80;;;14.50;99.90;;;14.15;100.00;97323.88;4971621;28;20396;-57
2022/10/20 09:07:42;;;;;;;7.38;5.15;;;14.60;99.90;;;14.26;100.00;97322.34;4950233;28;20030;-58
2022/10/20 09:10:31;;;;;;;8.70;6.40;;;14.70;99.90;;;14.36;100.00;97324.53;4967543;28;20527;-57
2022/10/20 09:12:57;;;;;;;9.18;5.90;;;14.80;99.90;;;14.45;100.00;97326.69;4952275;28;20325;-57
2022/10/20 09:15:25;;;;;;;9.52;5.13;;;14.90;99.90;;;14.59;100.00;97329.50;4971229;28;20344;-58
2022/10/20 09:18:09;;;;;;;7.85;5.57;;;15.00;99.90;;;14.69;100.00;97327.19;4952408;28;20031;-57
2022/10/20 09:20:59;;;;;;;7.20;5.07;;;15.10;99.90;;;14.75;100.00;97325.97;4951719;28;20153;-58
2022/10/20 09:23:52;;;;;;;6.72;4.88;;;15.20;99.90;;;14.81;100.00;97318.53;4952446;28;20089;-57
2022/10/20 09:26:21;;;;;;;8.85;5.53;;;15.20;99.90;;;14.91;100.00;97345.44;4970121;28;20045;-57
2022/10/20 09:28:50;;;;;;;9.75;5.47;;;15.30;99.90;;;14.92;100.00;97341.00;4970227;28;20081;-58
2022/10/20 09:31:31;;;;;;;5.03;4.22;;;15.30;99.90;;;14.92;100.00;97322.41;4971358;28;20038;-58
2022/10/20 09:33:57;;;;;;;9.43;5.78;;;15.30;99.90;;;14.87;100.00;97341.22;4972564;28;20031;-57
2022/10/20 09:36:30;;;;;;;7.45;5.30;;;15.30;99.90;;;14.87;100.00;97339.44;4975788;28;20053;-57
2022/10/20 09:38:56;;;;;;;6.80;5.13;;;15.30;99.90;;;14.92;100.00;97341.00;4973395;28;20037;-57
2022/10/20 09:41:30;;;;;;;6.38;4.65;;;15.30;99.90;;;14.97;100.00;97333.63;4974019;28;20041;-57
2022/10/20 09:44:07;;;;;;;6.60;4.90;;;15.40;99.90;;;15.04;100.00;97343.81;4988085;23;20045;-46
2022/10/20 09:46:43;;;;;;;7.47;4.68;;;15.40;99.90;;;15.08;100.00;97342.69;5012456;28;20041;-44
2022/10/20 09:49:23;;;;;;;10.52;5.55;;;15.50;99.90;;;15.13;100.00;97345.09;5011889;28;20017;-44
2022/10/20 09:51:51;;;;;;;10.50;5.03;;;15.60;99.90;;;15.25;100.00;97349.72;5019163;28;20029;-46
2022/10/20 09:54:18;;;;;;;10.80;5.88;;;15.70;99.90;;;15.42;100.00;97353.22;5000333;28;20121;-46
2022/10/20 09:56:46;;;;;;;9.10;5.50;;;15.80;99.90;;;15.57;100.00;97360.31;4991402;28;20077;-43
2022/10/20 09:59:33;;;;;;;11.98;5.63;;;16.00;99.90;;;15.73;100.00;97360.28;4994799;28;20270;-45
2022/10/20 10:02:28;;;;;;;6.20;4.15;;;16.20;99.90;;;15.96;100.00;97350.97;4994983;28;20305;-45
2022/10/20 10:05:12;;;;;;;7.22;5.03;;;16.30;99.90;;;16.08;100.00;97344.06;4995447;28;20300;-48
2022/10/20 10:07:38;;;;;;;10.30;5.25;;;16.50;99.90;;;16.09;100.00;97332.47;4996657;28;20112;-46
2022/10/20 10:10:24;;;;;;;6.32;4.70;;;16.60;99.90;;;16.33;100.00;97353.22;4996060;28;20037;-46
2022/10/20 10:12:55;;;;;;;7.82;4.70;;;16.70;99.90;;;16.41;100.00;97356.28;4996464;28;20506;-47
2022/10/20 10:15:21;;;;;;;7.78;5.38;;;16.80;99.90;;;16.53;100.00;97360.84;4982833;28;20034;-46
2022/10/20 10:17:48;;;;;;;8.77;4.65;;;17.00;99.90;;;16.67;100.00;97352.00;4985158;28;20065;-45
2022/10/20 10:20:15;;;;;;;6.72;4.70;;;17.10;99.90;;;16.78;100.00;97344.19;4981211;28;20740;-45
2022/10/20 10:22:41;;;;;;;6.50;5.00;;;17.20;99.90;;;16.92;100.00;97354.03;4996612;28;20517;-45